Time;durP1;ratioP1;P1;durP2;ratioP2;P2;SDS_P1;SDS_P2;PMS_P1;PMS_P2;Temp;Humidity;BMP_temperature;BMP_pressure;BME280_temperature;BME280_humidity;BME280_pressure;Samples;Min_cycle;Max_cycle;Signal;HPM_P1;HPM_P2
2023/03/09 00:03:02;;;;;;;;;;;6.00;55.10;;;3.80;57.97;99058.53;12258033;19;20246;-87
2023/03/09 00:07:05;;;;;;;;;;;5.70;55.00;;;4.08;57.78;99100.91;12260127;19;19911;-87
2023/03/09 00:11:06;;;;;;;;;;;5.70;54.90;;;4.04;58.04;99104.59;12263246;19;19913;-86
2023/03/09 00:15:09;;;;;;;;;;;5.70;54.80;;;4.09;58.01;99105.19;12259198;19;19915;-87
2023/03/09 00:19:11;;;;;;;;;;;5.70;55.00;;;4.10;57.97;99112.00;12266595;19;19932;-86
2023/03/09 00:23:17;;;;;;;;;;;5.80;54.80;;;4.09;57.87;99094.84;12260843;19;19911;-87
2023/03/09 00:27:19;;;;;;;;;;;5.70;54.70;;;4.10;57.86;99096.50;12266525;19;19917;-87
2023/03/09 00:31:20;;;;;;;;;;;5.90;54.70;;;4.04;58.09;99094.25;12264237;19;19966;-87
2023/03/09 00:35:26;;;;;;;;;;;6.00;54.80;;;3.97;57.94;99086.84;12259753;19;20256;-86
2023/03/09 00:39:27;;;;;;;;;;;5.80;54.70;;;4.06;58.06;99105.34;12264173;19;19982;-86
2023/03/09 00:43:29;;;;;;;;;;;5.90;54.80;;;3.75;58.07;99055.34;12260273;19;20508;-87
2023/03/09 00:47:31;;;;;;;;;;;5.90;55.10;;;3.93;58.23;99076.78;12261269;19;19915;-86
2023/03/09 00:51:34;;;;;;;;;;;6.00;56.00;;;3.95;57.73;99103.34;12261332;19;20334;-87
2023/03/09 00:55:36;;;;;;;;;;;5.70;55.00;;;3.95;58.07;99099.00;12264525;19;20294;-87
2023/03/09 00:59:38;;;;;;;;;;;5.70;54.90;;;3.78;58.10;99065.53;12260858;19;20326;-87
2023/03/09 01:03:39;;;;;;;;;;;5.70;55.00;;;4.03;58.09;99101.19;12259798;19;19933;-86
2023/03/09 01:07:42;;;;;;;;;;;5.70;55.00;;;3.97;57.95;99091.19;12260918;19;19914;-86
2023/03/09 01:11:43;;;;;;;;;;;5.70;55.00;;;3.81;58.00;99056.78;12256625;19;20142;-86
2023/03/09 01:15:45;;;;;;;;;;;5.70;54.90;;;4.06;58.23;99088.09;12258646;19;20001;-87
2023/03/09 01:19:47;;;;;;;;;;;5.70;55.20;;;3.93;57.96;99056.13;12261278;19;19911;-86
2023/03/09 01:23:48;;;;;;;;;;;5.90;54.90;;;3.98;58.13;99070.44;12258960;19;20230;-86
2023/03/09 01:27:51;;;;;;;;;;;5.70;54.80;;;4.08;58.16;99069.91;12259528;19;20322;-86
2023/03/09 01:31:52;;;;;;;;;;;5.90;54.90;;;4.12;58.09;99079.19;12260618;19;19974;-86
2023/03/09 01:35:54;;;;;;;;;;;5.70;54.90;;;3.82;58.15;99041.22;12260361;19;19949;-86
2023/03/09 01:39:57;;;;;;;;;;;5.70;55.00;;;4.06;58.11;99061.44;12257667;19;19907;-86
2023/03/09 01:43:58;;;;;;;;;;;5.70;54.80;;;4.06;58.03;99053.69;12256766;19;20274;-86
2023/03/09 01:48:00;;;;;;;;;;;5.90;54.80;;;3.99;58.18;99041.09;12258968;19;19918;-86
2023/03/09 01:52:30;;;;;;;;;;;5.70;54.70;;;4.10;57.95;99055.19;12252203;19;19926;-86
2023/03/09 01:56:33;;;;;;;;;;;5.70;55.00;;;4.07;57.90;99055.34;12253736;19;20329;-86
2023/03/09 02:00:35;;;;;;;;;;;5.70;54.80;;;3.90;58.09;99028.72;12254760;19;20336;-86
2023/03/09 02:04:52;;;;;;;;;;;5.70;55.10;;;3.98;58.13;99041.19;12253549;19;20254;-86
2023/03/09 02:09:24;;;;;;;;;;;5.70;55.10;;;4.03;58.02;99051.28;12257829;19;19939;-86
2023/03/09 02:13:34;;;;;;;;;;;5.60;55.30;;;4.00;57.96;99049.72;12253417;19;19918;-86
2023/03/09 02:17:35;;;;;;;;;;;5.60;55.20;;;3.63;58.16;98983.75;12255884;19;19910;-86
2023/03/09 02:21:51;;;;;;;;;;;5.60;55.10;;;3.67;58.29;98990.41;12257396;19;20339;-86
2023/03/09 02:26:13;;;;;;;;;;;5.70;55.00;;;4.06;58.27;99043.38;12267520;19;20326;-86
2023/03/09 02:30:14;;;;;;;;;;;5.60;55.00;;;4.04;57.97;99040.84;12260272;19;19947;-86
2023/03/09 02:34:15;;;;;;;;;;;5.60;55.70;;;3.93;58.06;99014.78;12262017;19;19975;-86
2023/03/09 02:38:22;;;;;;;;;;;5.60;55.50;;;3.65;58.04;98969.03;12266710;19;20328;-86
2023/03/09 02:42:24;;;;;;;;;;;5.70;55.30;;;3.97;58.21;99029.22;12261659;19;19915;-86
2023/03/09 02:46:26;;;;;;;;;;;5.60;55.20;;;3.92;57.97;99013.97;12262930;19;20350;-86
2023/03/09 02:50:28;;;;;;;;;;;5.80;55.40;;;3.96;58.07;99014.63;12262157;19;19939;-86
2023/03/09 02:54:30;;;;;;;;;;;5.70;55.80;;;3.58;58.28;98955.63;12258412;19;19921;-86
2023/03/09 02:58:33;;;;;;;;;;;5.50;55.50;;;3.93;58.36;99014.78;12262442;19;19930;-85
2023/03/09 03:02:36;;;;;;;;;;;5.50;55.20;;;3.85;58.18;99015.22;12259704;19;19919;-86
2023/03/09 03:06:37;;;;;;;;;;;5.50;55.60;;;3.53;58.29;98947.28;12263277;19;19929;-85
2023/03/09 03:10:39;;;;;;;;;;;5.50;55.90;;;3.76;58.12;98989.91;12263665;19;19911;-86
2023/03/09 03:14:41;;;;;;;;;;;5.50;55.70;;;3.84;58.32;99002.41;12260476;19;19911;-86
2023/03/09 03:18:43;;;;;;;;;;;5.50;55.40;;;3.71;58.06;98976.44;12263557;19;19903;-86
2023/03/09 03:22:45;;;;;;;;;;;5.50;55.90;;;3.74;58.06;98984.84;12258233;19;20008;-86
2023/03/09 03:26:47;;;;;;;;;;;5.50;55.50;;;3.69;58.31;98975.69;12260934;19;19918;-85
2023/03/09 03:30:53;;;;;;;;;;;5.40;55.80;;;3.80;58.40;99001.72;12260198;19;19946;-86
2023/03/09 03:34:57;;;;;;;;;;;5.60;55.90;;;3.72;58.29;98983.25;12254544;19;19922;-85
2023/03/09 03:38:59;;;;;;;;;;;5.40;56.40;;;3.48;58.22;98954.44;12263662;19;20325;-86
2023/03/09 03:43:01;;;;;;;;;;;5.40;55.90;;;3.69;58.42;98978.25;12259377;19;19918;-86
2023/03/09 03:47:04;;;;;;;;;;;5.40;56.40;;;3.40;58.34;98944.53;12262623;19;19918;-85
2023/03/09 03:51:06;;;;;;;;;;;5.30;56.50;;;3.66;58.42;98988.75;12259312;19;19919;-86
2023/03/09 03:55:09;;;;;;;;;;;5.50;56.70;;;3.52;58.44;98968.88;12255554;19;20263;-86
2023/03/09 03:59:12;;;;;;;;;;;5.30;56.50;;;3.61;58.30;98983.84;12260255;19;20334;-86
2023/03/09 04:03:13;;;;;;;;;;;5.30;55.90;;;3.65;58.23;98987.09;12253812;19;19930;-85
2023/03/09 04:07:18;;;;;;;;;;;5.50;55.90;;;3.31;58.33;98930.41;12259658;19;19999;-86
2023/03/09 04:11:20;;;;;;;;;;;5.30;56.70;;;3.58;58.15;98965.13;12257133;19;20358;-85
2023/03/09 04:15:24;;;;;;;;;;;5.30;55.70;;;3.37;58.46;98947.28;12255148;19;19924;-85
2023/03/09 04:19:26;;;;;;;;;;;5.20;55.80;;;3.24;58.56;98921.34;12257290;19;19927;-85
2023/03/09 04:23:28;;;;;;;;;;;5.30;57.00;;;3.24;58.47;98916.19;12253811;19;19919;-86
2023/03/09 04:27:32;;;;;;;;;;;5.40;56.50;;;3.48;58.44;98963.06;12256496;19;19918;-86
2023/03/09 04:31:46;;;;;;;;;;;5.20;56.40;;;3.52;58.45;98950.81;12253851;19;19922;-85
2023/03/09 04:35:48;;;;;;;;;;;5.30;56.60;;;3.55;58.53;98960.97;12256627;19;20334;-86
2023/03/09 04:39:56;;;;;;;;;;;5.20;56.30;;;3.53;58.36;98942.13;12253067;19;20337;-86
2023/03/09 04:43:59;;;;;;;;;;;5.40;56.50;;;3.59;58.69;98966.78;12256620;19;20316;-86
2023/03/09 04:48:00;;;;;;;;;;;5.30;56.30;;;3.57;58.44;98958.31;12256584;19;20324;-86
2023/03/09 04:52:04;;;;;;;;;;;5.50;56.70;;;3.47;58.32;98956.22;12258977;19;19926;-86
2023/03/09 04:56:06;;;;;;;;;;;5.40;56.40;;;3.48;58.67;98955.31;12250775;19;19922;-85
2023/03/09 05:00:17;;;;;;;;;;;5.20;56.70;;;3.58;58.59;98984.00;12254920;19;19919;-86
2023/03/09 05:04:18;;;;;;;;;;;5.20;56.50;;;3.59;58.68;98983.09;12254073;19;19919;-86
2023/03/09 05:08:28;;;;;;;;;;;5.50;56.40;;;3.54;58.70;98977.38;12259112;19;19935;-86
2023/03/09 05:12:33;;;;;;;;;;;5.20;56.10;;;3.63;58.49;99004.41;12253745;19;19925;-85
2023/03/09 05:16:38;;;;;;;;;;;5.40;56.50;;;3.09;58.54;98917.03;12259220;19;19955;-86
2023/03/09 05:20:42;;;;;;;;;;;5.20;56.00;;;3.64;58.66;99016.38;12254876;19;19918;-86
2023/03/09 05:24:44;;;;;;;;;;;5.20;56.50;;;3.62;58.77;99013.91;12252847;19;19947;-86
2023/03/09 05:28:49;;;;;;;;;;;5.30;56.50;;;3.53;58.53;99001.50;12254226;19;19919;-86
2023/03/09 05:32:50;;;;;;;;;;;5.30;56.30;;;3.68;58.57;99023.88;12252529;19;19950;-86
2023/03/09 05:36:55;;;;;;;;;;;5.30;56.20;;;3.68;58.47;99023.88;12257422;19;20012;-87
2023/03/09 05:41:04;;;;;;;;;;;5.30;56.50;;;3.60;58.45;99013.16;12256969;19;19918;-85
2023/03/09 05:45:08;;;;;;;;;;;5.30;56.60;;;3.71;58.42;99026.31;12252622;19;19919;-86
2023/03/09 05:49:10;;;;;;;;;;;5.30;56.20;;;3.65;58.60;99026.66;12254250;19;19927;-86
2023/03/09 05:53:12;;;;;;;;;;;5.30;56.40;;;3.69;58.58;99035.88;12256648;19;19931;-85
2023/03/09 05:57:14;;;;;;;;;;;5.30;56.20;;;3.70;58.68;99036.69;12253806;19;20320;-86
2023/03/09 06:01:22;;;;;;;;;;;5.30;56.40;;;3.65;58.50;99034.38;12255783;19;20381;-86
2023/03/09 06:05:26;;;;;;;;;;;5.30;56.40;;;3.65;58.46;99038.72;12254273;19;19930;-85
2023/03/09 06:09:28;;;;;;;;;;;5.60;56.40;;;3.70;58.57;99057.34;12255567;19;19934;-84
2023/03/09 06:13:31;;;;;;;;;;;5.30;56.40;;;3.67;58.56;99053.22;12254972;19;19915;-85
2023/03/09 06:17:35;;;;;;;;;;;5.30;56.10;;;3.51;58.75;99027.38;12256613;19;19970;-84
2023/03/09 06:21:39;;;;;;;;;;;5.30;56.10;;;3.64;58.56;99066.25;12254488;19;19936;-85
2023/03/09 06:25:41;;;;;;;;;;;5.40;55.90;;;3.40;58.53;99040.00;12255749;19;19935;-84
2023/03/09 06:29:44;;;;;;;;;;;5.30;56.30;;;3.58;58.46;99078.66;12257873;19;19931;-84
2023/03/09 06:33:46;;;;;;;;;;;5.30;56.20;;;3.60;58.65;99080.25;12255849;19;19950;-85
2023/03/09 06:37:50;;;;;;;;;;;5.30;56.10;;;3.65;58.53;99093.75;12259424;19;19919;-84
2023/03/09 06:41:52;;;;;;;;;;;5.50;56.00;;;3.68;58.69;99103.91;12256164;19;19923;-84
2023/03/09 06:46:08;;;;;;;;;;;5.60;56.40;;;3.65;58.72;99116.97;12257993;19;19948;-84
2023/03/09 06:50:10;;;;;;;;;;;5.30;57.20;;;3.31;58.66;99067.13;12258080;19;19911;-85
2023/03/09 06:54:15;;;;;;;;;;;5.20;56.60;;;3.51;58.80;99102.22;12255234;19;19915;-85
2023/03/09 06:58:25;;;;;;;;;;;5.20;56.20;;;3.51;58.61;99099.66;12259675;19;19914;-85
2023/03/09 07:02:27;;;;;;;;;;;5.30;56.20;;;3.60;58.62;99134.44;12253937;19;19994;-85
2023/03/09 07:06:29;;;;;;;;;;;5.20;57.20;;;3.62;58.96;99153.28;12263811;19;19923;-85
2023/03/09 07:10:30;;;;;;;;;;;5.20;56.40;;;3.60;58.74;99162.00;12270776;19;20345;-86
2023/03/09 07:14:31;;;;;;;;;;;5.30;56.50;;;3.61;58.78;99158.50;12265983;19;19927;-83
2023/03/09 07:18:33;;;;;;;;;;;5.30;56.00;;;3.63;58.70;99161.84;12267932;19;20360;-88
2023/03/09 07:22:35;;;;;;;;;;;5.50;56.40;;;3.67;58.85;99184.00;12263681;19;19915;-85
2023/03/09 07:26:37;;;;;;;;;;;5.40;56.50;;;3.63;58.74;99185.09;12266106;19;19919;-85
2023/03/09 07:30:39;;;;;;;;;;;5.30;56.20;;;3.51;58.80;99181.38;12265625;19;19915;-86
2023/03/09 07:34:40;;;;;;;;;;;5.30;56.20;;;3.54;58.66;99194.97;12260513;19;19926;-89
2023/03/09 07:38:41;;;;;;;;;;;5.30;55.80;;;3.57;58.66;99206.88;12261010;19;19917;-85
2023/03/09 07:42:43;;;;;;;;;;;5.30;56.00;;;3.60;59.02;99216.22;12261052;19;20333;-86
2023/03/09 07:46:55;;;;;;;;;;;5.40;56.00;;;3.24;58.63;99162.97;12269822;19;19948;-85
2023/03/09 07:50:58;;;;;;;;;;;5.30;55.90;;;3.64;58.95;99238.34;12270084;19;19919;-85
2023/03/09 07:55:00;;;;;;;;;;;5.30;55.70;;;3.70;58.71;99241.47;12272121;19;19911;-85
2023/03/09 07:59:02;;;;;;;;;;;5.30;55.80;;;3.73;58.86;99243.06;12274696;19;19907;-88
2023/03/09 08:03:04;;;;;;;;;;;5.40;55.80;;;3.42;58.81;99192.16;12267937;19;19914;-87
2023/03/09 08:07:05;;;;;;;;;;;5.60;56.20;;;3.54;58.92;99222.53;12264868;19;19939;-85
2023/03/09 08:11:07;;;;;;;;;;;5.40;56.10;;;3.70;58.78;99251.81;12272217;19;20265;-85
2023/03/09 08:15:09;;;;;;;;;;;5.40;55.70;;;3.75;58.91;99277.38;12269173;19;19922;-86
2023/03/09 08:19:11;;;;;;;;;;;5.40;56.10;;;3.77;58.91;99273.78;12268904;19;19907;-85
2023/03/09 08:23:13;;;;;;;;;;;5.40;56.00;;;3.62;58.76;99264.25;12264691;19;19910;-87
2023/03/09 08:27:15;;;;;;;;;;;5.60;55.80;;;3.86;58.81;99294.91;12266843;19;19915;-86
2023/03/09 08:31:17;;;;;;;;;;;5.40;55.90;;;3.52;58.86;99250.16;12264888;19;19918;-86
2023/03/09 08:35:21;;;;;;;;;;;5.50;55.70;;;3.90;59.06;99312.75;12263321;19;19919;-87
2023/03/09 08:39:22;;;;;;;;;;;5.50;55.60;;;3.79;58.90;99299.56;12260867;19;19919;-86
2023/03/09 08:43:24;;;;;;;;;;;5.60;56.00;;;3.93;58.86;99320.34;12256963;19;19948;-86
2023/03/09 08:47:25;;;;;;;;;;;5.50;55.80;;;3.89;58.79;99315.41;12258456;19;19915;-87
2023/03/09 08:51:28;;;;;;;;;;;5.60;55.90;;;3.87;58.85;99312.91;12259335;19;19919;-86
2023/03/09 08:55:29;;;;;;;;;;;5.60;55.70;;;3.92;58.85;99313.50;12254053;19;20267;-86
2023/03/09 08:59:31;;;;;;;;;;;5.60;55.80;;;3.72;59.07;99287.84;12255975;19;19922;-87
2023/03/09 09:03:32;;;;;;;;;;;5.60;55.80;;;3.75;58.94;99290.28;12256135;19;19918;-87
2023/03/09 09:07:34;;;;;;;;;;;5.60;55.70;;;3.97;58.93;99342.53;12255928;19;20345;-87
2023/03/09 09:11:36;;;;;;;;;;;5.70;55.80;;;3.87;59.08;99328.41;12254620;19;19914;-86
2023/03/09 09:15:39;;;;;;;;;;;5.70;56.30;;;4.02;58.83;99349.19;12255520;19;20007;-87
2023/03/09 09:19:41;;;;;;;;;;;5.70;55.60;;;4.03;58.94;99363.78;12253293;19;19923;-88
2023/03/09 09:23:43;;;;;;;;;;;5.70;55.70;;;3.99;58.94;99351.00;12249940;19;19923;-87
2023/03/09 09:27:48;;;;;;;;;;;5.80;55.70;;;3.89;58.82;99348.97;12251594;19;19970;-86
2023/03/09 09:31:49;;;;;;;;;;;5.70;55.50;;;3.83;58.86;99337.19;12249167;19;19931;-87
2023/03/09 09:35:59;;;;;;;;;;;5.70;55.60;;;4.10;58.80;99393.56;12253048;19;19914;-88
2023/03/09 09:40:00;;;;;;;;;;;5.70;55.70;;;3.81;59.03;99353.69;12255237;19;19989;-87
2023/03/09 09:44:04;;;;;;;;;;;5.90;55.90;;;4.05;58.99;99393.81;12253032;19;19907;-86
2023/03/09 09:48:07;;;;;;;;;;;5.70;55.60;;;3.97;58.98;99386.44;12254538;19;19918;-87
2023/03/09 09:52:19;;;;;;;;;;;5.80;55.90;;;4.12;58.94;99414.97;12249521;19;19910;-87
2023/03/09 09:56:24;;;;;;;;;;;5.70;55.60;;;4.02;58.85;99398.25;12254419;19;19943;-87
2023/03/09 10:00:37;;;;;;;;;;;5.80;55.80;;;4.07;58.82;99398.88;12249479;19;19926;-86
2023/03/09 10:04:46;;;;;;;;;;;5.70;55.50;;;4.14;58.79;99429.50;12249324;19;19919;-86
2023/03/09 10:08:55;;;;;;;;;;;5.70;56.10;;;4.14;58.92;99433.84;12250009;19;20260;-86
2023/03/09 10:13:00;;;;;;;;;;;6.00;55.80;;;4.13;58.83;99432.16;12251031;19;19952;-87
2023/03/09 10:17:31;;;;;;;;;;;5.90;55.60;;;4.17;58.88;99438.84;12249513;19;19928;-87
2023/03/09 10:21:54;;;;;;;;;;;5.80;55.70;;;4.10;58.71;99434.88;12248797;19;20338;-87
2023/03/09 10:26:22;;;;;;;;;;;5.80;55.50;;;4.17;59.02;99449.19;12248583;19;19939;-87
2023/03/09 10:30:32;;;;;;;;;;;5.80;55.50;;;4.18;58.75;99463.75;12252044;19;20357;-87
2023/03/09 10:34:45;;;;;;;;;;;6.00;55.40;;;3.91;58.84;99416.88;12248110;19;19911;-87
2023/03/09 10:38:48;;;;;;;;;;;5.90;55.30;;;4.13;59.08;99460.56;12249432;19;20219;-88
2023/03/09 10:42:49;;;;;;;;;;;5.80;55.30;;;4.01;58.79;99448.25;12251088;19;19910;-88
2023/03/09 10:47:01;;;;;;;;;;;5.90;55.70;;;4.28;58.89;99498.56;12260538;19;19926;-88
2023/03/09 10:51:04;;;;;;;;;;;5.90;55.40;;;4.25;58.88;99484.97;12262722;19;20321;-88
2023/03/09 10:55:44;;;;;;;;;;;5.90;55.50;;;4.31;59.08;99508.75;12257901;19;19911;-87
2023/03/09 11:00:01;;;;;;;;;;;5.90;55.90;;;4.32;59.01;99518.19;12254914;19;19918;-88
2023/03/09 11:04:22;;;;;;;;;;;6.00;55.40;;;4.16;58.83;99483.69;12258984;19;19939;-88
2023/03/09 11:08:29;;;;;;;;;;;5.90;55.30;;;4.24;59.06;99497.06;12260757;19;19915;-88
2023/03/09 11:12:32;;;;;;;;;;;6.00;55.90;;;4.24;58.98;99504.81;12256795;19;19929;-88
2023/03/09 11:16:35;;;;;;;;;;;5.90;55.20;;;4.22;58.95;99493.72;12259823;19;20246;-87
2023/03/09 11:20:37;;;;;;;;;;;6.00;55.30;;;4.35;58.87;99520.63;12256604;19;20344;-86
2023/03/09 11:24:45;;;;;;;;;;;6.00;55.30;;;4.36;59.13;99519.69;12256589;19;19918;-88
2023/03/09 11:29:04;;;;;;;;;;;6.00;55.30;;;4.41;58.68;99532.41;12258996;19;19927;-88
2023/03/09 11:33:12;;;;;;;;;;;6.00;55.30;;;4.34;58.88;99525.84;12259233;19;19978;-89
2023/03/09 11:37:52;;;;;;;;;;;6.10;55.30;;;4.42;58.80;99534.06;12268535;19;19914;-88
2023/03/09 11:41:54;;;;;;;;;;;6.00;55.10;;;4.35;59.02;99523.22;12261577;19;20374;-88
2023/03/09 11:46:00;;;;;;;;;;;6.10;55.10;;;4.38;59.07;99525.63;12264100;19;19970;-88
2023/03/09 11:50:21;;;;;;;;;;;6.00;55.20;;;4.49;59.16;99542.38;12263544;19;19933;-88
2023/03/09 11:54:34;;;;;;;;;;;6.10;55.20;;;4.51;58.88;99548.28;12258304;19;19919;-89
2023/03/09 11:58:38;;;;;;;;;;;6.10;55.20;;;4.41;58.85;99528.06;12263453;19;19918;-87
2023/03/09 12:03:01;;;;;;;;;;;6.30;55.30;;;4.51;58.87;99546.56;12261276;19;19961;-89
2023/03/09 12:07:07;;;;;;;;;;;6.10;55.10;;;4.49;59.03;99548.38;12259489;19;20351;-87
2023/03/09 12:11:24;;;;;;;;;;;6.20;55.30;;;4.54;59.02;99551.56;12258252;19;19930;-87
2023/03/09 12:15:37;;;;;;;;;;;6.20;55.30;;;4.52;58.97;99549.97;12256422;19;19945;-88
2023/03/09 12:19:44;;;;;;;;;;;6.20;55.20;;;4.40;58.99;99534.16;12256537;19;19940;-88
2023/03/09 12:23:48;;;;;;;;;;;6.20;55.20;;;4.24;59.05;99507.41;12250436;19;19984;-89
2023/03/09 12:27:52;;;;;;;;;;;6.20;55.20;;;4.38;58.95;99532.56;12255162;19;19925;-86
2023/03/09 12:32:29;;;;;;;;;;;6.50;55.20;;;4.51;58.85;99553.47;12252602;19;19907;-86
2023/03/09 12:36:36;;;;;;;;;;;6.20;55.20;;;4.48;58.88;99551.03;12250972;19;20271;-86
2023/03/09 12:40:38;;;;;;;;;;;6.10;55.10;;;4.19;58.88;99514.53;12253514;19;20346;-86
2023/03/09 12:44:50;;;;;;;;;;;6.10;55.20;;;4.48;59.04;99567.38;12248744;19;20306;-86
2023/03/09 12:48:51;;;;;;;;;;;6.10;55.60;;;4.41;59.02;99566.84;12256386;19;19989;-86
2023/03/09 12:53:14;;;;;;;;;;;6.10;55.50;;;4.46;59.11;99569.22;12253444;19;19942;-87
2023/03/09 12:57:17;;;;;;;;;;;6.10;55.20;;;4.40;58.92;99547.09;12256274;19;19929;-86
2023/03/09 13:01:20;;;;;;;;;;;6.10;55.30;;;4.51;59.04;99567.25;12250744;19;19978;-87
2023/03/09 13:05:39;;;;;;;;;;;6.20;55.40;;;4.42;59.03;99558.16;12255840;19;19907;-87
2023/03/09 13:09:42;;;;;;;;;;;6.10;55.30;;;4.50;59.17;99564.72;12262119;19;19922;-86
2023/03/09 13:13:45;;;;;;;;;;;6.20;55.40;;;4.50;58.96;99560.38;12259950;19;19915;-87
2023/03/09 13:18:12;;;;;;;;;;;6.20;55.50;;;4.56;58.95;99559.25;12265256;19;19911;-86
2023/03/09 13:22:19;;;;;;;;;;;6.20;55.50;;;4.43;58.97;99546.94;12261891;19;20263;-86
2023/03/09 13:26:21;;;;;;;;;;;6.20;55.40;;;4.51;58.96;99558.63;12265660;19;19915;-87
2023/03/09 13:30:26;;;;;;;;;;;6.20;55.40;;;4.49;58.85;99550.13;12265251;19;20350;-87
2023/03/09 13:34:32;;;;;;;;;;;6.20;55.40;;;4.58;59.04;99578.09;12265886;19;19919;-86
2023/03/09 13:38:36;;;;;;;;;;;6.20;55.60;;;4.42;59.00;99549.56;12262017;19;19922;-87
2023/03/09 13:42:39;;;;;;;;;;;6.20;55.50;;;4.60;58.87;99577.13;12262648;19;20261;-87
2023/03/09 13:46:43;;;;;;;;;;;6.20;55.50;;;4.50;58.89;99567.31;12261939;19;19922;-87
2023/03/09 13:50:45;;;;;;;;;;;6.20;55.50;;;4.56;59.01;99567.00;12259449;19;19915;-87
2023/03/09 13:54:54;;;;;;;;;;;6.20;55.50;;;4.62;59.11;99590.81;12288095;19;19932;-87
2023/03/09 13:58:57;;;;;;;;;;;6.30;55.40;;;4.52;58.91;99565.50;12276987;19;19943;-86
2023/03/09 14:02:59;;;;;;;;;;;6.30;55.50;;;4.39;58.97;99553.16;12263362;19;19935;-86
2023/03/09 14:07:00;;;;;;;;;;;6.30;55.50;;;4.64;58.96;99601.06;12264377;19;19911;-86
2023/03/09 14:11:07;;;;;;;;;;;6.30;55.50;;;4.64;59.05;99601.94;12263678;19;19927;-86
2023/03/09 14:15:17;;;;;;;;;;;6.30;55.50;;;4.67;58.83;99608.66;12262385;19;19935;-87
2023/03/09 14:19:30;;;;;;;;;;;6.30;55.40;;;4.69;59.08;99601.69;12275557;19;19914;-86
2023/03/09 14:23:41;;;;;;;;;;;6.30;55.40;;;4.59;58.93;99582.34;12276396;19;19918;-86
2023/03/09 14:27:42;;;;;;;;;;;6.30;55.40;;;4.69;58.87;99593.91;12275687;19;19930;-86
2023/03/09 14:31:44;;;;;;;;;;;6.40;55.50;;;4.70;59.09;99579.25;12275732;19;20257;-86
2023/03/09 14:35:46;;;;;;;;;;;6.40;55.50;;;4.53;58.90;99556.81;12278363;19;19915;-87
2023/03/09 14:39:48;;;;;;;;;;;6.30;55.40;;;4.70;59.08;99576.66;12278538;19;19921;-87
2023/03/09 14:43:49;;;;;;;;;;;6.40;55.40;;;4.72;59.08;99585.19;12265038;19;20268;-86
2023/03/09 14:47:56;;;;;;;;;;;6.70;55.60;;;4.75;58.93;99591.06;12270507;19;19911;-86
2023/03/09 14:51:57;;;;;;;;;;;6.40;55.50;;;4.72;58.93;99569.66;12264715;19;19936;-86
2023/03/09 14:55:58;;;;;;;;;;;6.40;55.40;;;4.71;59.08;99562.81;12266851;19;19930;-86
2023/03/09 15:00:00;;;;;;;;;;;6.40;55.50;;;4.71;58.98;99560.25;12267199;19;19915;-86
2023/03/09 15:04:01;;;;;;;;;;;6.40;55.30;;;4.72;58.92;99560.16;12261027;19;20266;-86
2023/03/09 15:08:03;;;;;;;;;;;6.40;55.50;;;4.71;59.16;99579.19;12263551;19;19911;-87
2023/03/09 15:12:04;;;;;;;;;;;6.40;55.40;;;4.74;58.92;99583.38;12265071;19;19911;-86
2023/03/09 15:16:06;;;;;;;;;;;6.40;55.50;;;4.75;58.99;99600.53;12266265;19;19915;-86
2023/03/09 15:20:13;;;;;;;;;;;6.40;55.50;;;4.74;59.26;99589.38;12263497;19;19923;-86
2023/03/09 15:24:15;;;;;;;;;;;6.40;55.50;;;4.72;59.17;99569.66;12261804;19;19947;-86
2023/03/09 15:28:16;;;;;;;;;;;6.60;55.50;;;4.73;59.21;99559.25;12261603;19;19923;-86
2023/03/09 15:32:18;;;;;;;;;;;6.40;55.50;;;4.77;59.17;99578.88;12262236;19;19911;-86
2023/03/09 15:36:20;;;;;;;;;;;6.40;55.40;;;4.84;59.04;99587.16;12254243;19;19922;-86
2023/03/09 15:40:22;;;;;;;;;;;6.50;55.60;;;4.55;59.21;99553.25;12258112;19;20259;-86
2023/03/09 15:44:24;;;;;;;;;;;6.40;55.40;;;4.82;58.97;99589.81;12254722;19;19923;-86
2023/03/09 15:48:26;;;;;;;;;;;6.40;55.40;;;4.77;58.94;99584.03;12257754;19;19927;-86
2023/03/09 15:52:29;;;;;;;;;;;6.50;55.40;;;4.79;58.97;99587.38;12255561;19;19978;-86
2023/03/09 15:56:32;;;;;;;;;;;6.40;55.60;;;4.88;59.14;99594.69;12257220;19;19915;-87
2023/03/09 16:00:35;;;;;;;;;;;6.50;55.50;;;4.56;59.15;99543.72;12254927;19;20008;-87
2023/03/09 16:04:37;;;;;;;;;;;6.40;55.50;;;4.73;59.11;99572.19;12250621;19;20478;-86
2023/03/09 16:08:40;;;;;;;;;;;6.50;55.50;;;4.94;58.93;99618.56;12257576;19;19927;-87
2023/03/09 16:12:49;;;;;;;;;;;6.60;55.50;;;4.96;58.91;99609.00;12256256;19;19933;-87
2023/03/09 16:16:51;;;;;;;;;;;6.60;55.50;;;4.62;59.12;99548.63;12256058;19;20329;-86
2023/03/09 16:20:53;;;;;;;;;;;6.60;55.50;;;4.71;59.09;99570.59;12254138;19;19957;-87
2023/03/09 16:24:54;;;;;;;;;;;6.60;55.40;;;4.98;59.14;99610.59;12252058;19;19946;-86
2023/03/09 16:28:56;;;;;;;;;;;6.60;55.40;;;5.00;59.14;99613.09;12258143;19;19922;-86
2023/03/09 16:32:58;;;;;;;;;;;6.60;55.50;;;4.98;58.95;99613.19;12254064;19;19918;-86
2023/03/09 16:37:01;;;;;;;;;;;6.60;55.40;;;4.90;59.04;99604.13;12256990;19;19942;-87
2023/03/09 16:41:10;;;;;;;;;;;6.70;55.40;;;4.93;59.16;99609.16;12254477;19;20265;-86
2023/03/09 16:45:14;;;;;;;;;;;6.60;55.30;;;4.91;58.92;99600.63;12249584;19;19943;-87
2023/03/09 16:49:16;;;;;;;;;;;6.60;55.30;;;4.81;58.98;99588.16;12254617;19;19915;-86
2023/03/09 16:53:18;;;;;;;;;;;6.60;55.50;;;4.78;59.13;99583.13;12255871;19;19978;-86
2023/03/09 16:57:20;;;;;;;;;;;6.50;55.40;;;4.88;58.97;99604.19;12253272;19;19915;-86
2023/03/09 17:01:21;;;;;;;;;;;6.50;55.40;;;4.83;59.19;99585.47;12254420;19;19946;-86
2023/03/09 17:05:23;;;;;;;;;;;6.50;55.40;;;4.74;59.11;99579.03;12255242;19;19923;-86
2023/03/09 17:09:24;;;;;;;;;;;6.50;55.40;;;4.88;59.19;99599.03;12258528;19;20332;-86
2023/03/09 17:13:26;;;;;;;;;;;6.60;55.50;;;4.87;59.00;99585.25;12253189;19;19918;-86
2023/03/09 17:17:28;;;;;;;;;;;6.50;55.40;;;4.82;59.03;99576.88;12257799;19;19922;-86
2023/03/09 17:21:29;;;;;;;;;;;6.50;55.40;;;4.74;59.03;99571.25;12260822;19;19918;-86
2023/03/09 17:25:31;;;;;;;;;;;6.50;55.70;;;4.84;59.14;99582.81;12250858;19;19944;-87
2023/03/09 17:29:32;;;;;;;;;;;6.50;55.40;;;4.84;59.19;99585.41;12253364;19;19932;-86
2023/03/09 17:33:34;;;;;;;;;;;6.50;55.50;;;4.68;59.12;99545.72;12249654;19;19919;-86
2023/03/09 17:37:38;;;;;;;;;;;6.40;55.50;;;4.76;59.03;99582.38;12252986;19;19910;-86
2023/03/09 17:41:39;;;;;;;;;;;6.40;55.50;;;4.68;59.23;99563.00;12255552;19;19982;-86
2023/03/09 17:45:41;;;;;;;;;;;6.40;55.40;;;4.77;59.03;99583.19;12252951;19;19943;-86
2023/03/09 17:49:43;;;;;;;;;;;6.40;55.40;;;4.75;59.08;99596.22;12254353;19;19939;-86
2023/03/09 17:53:45;;;;;;;;;;;6.70;55.50;;;4.49;59.04;99544.97;12252538;19;19990;-86
2023/03/09 17:57:46;;;;;;;;;;;6.40;55.50;;;4.74;58.97;99598.88;12256046;19;20313;-86
2023/03/09 18:01:48;;;;;;;;;;;6.40;55.50;;;4.46;59.12;99552.88;12255614;19;19910;-85
2023/03/09 18:05:50;;;;;;;;;;;6.40;55.40;;;4.79;59.09;99613.25;12246087;19;20252;-86
2023/03/09 18:09:52;;;;;;;;;;;6.40;55.40;;;4.74;59.04;99599.72;12249813;19;19923;-86
2023/03/09 18:13:55;;;;;;;;;;;6.40;55.40;;;4.75;59.01;99601.41;12250940;19;19948;-85
2023/03/09 18:17:57;;;;;;;;;;;6.40;55.50;;;4.78;59.03;99609.00;12254384;19;19922;-85
2023/03/09 18:21:59;;;;;;;;;;;6.40;55.40;;;4.76;58.92;99602.22;12253206;19;19922;-85
2023/03/09 18:26:01;;;;;;;;;;;6.50;55.40;;;4.51;59.10;99562.06;12255894;19;19919;-86
2023/03/09 18:30:03;;;;;;;;;;;6.40;55.30;;;4.68;59.17;99592.25;12254757;19;19995;-85
2023/03/09 18:34:06;;;;;;;;;;;6.40;55.30;;;4.76;58.96;99604.81;12253621;19;20322;-86
2023/03/09 18:38:08;;;;;;;;;;;6.40;55.30;;;4.70;58.99;99593.03;12253494;19;19927;-85
2023/03/09 18:42:10;;;;;;;;;;;6.40;55.30;;;4.72;59.08;99580.84;12249304;19;20017;-85
2023/03/09 18:46:12;;;;;;;;;;;6.40;55.30;;;4.73;58.85;99582.53;12252003;19;19911;-85
2023/03/09 18:50:13;;;;;;;;;;;6.50;55.30;;;4.65;59.03;99574.31;12252846;19;20536;-85
2023/03/09 18:54:15;;;;;;;;;;;6.40;55.20;;;4.72;58.94;99586.00;12249455;19;19914;-85
2023/03/09 18:58:19;;;;;;;;;;;6.40;55.20;;;4.72;58.97;99575.66;12261130;19;19952;-86